Time;durP1;ratioP1;P1;durP2;ratioP2;P2;SDS_P1;SDS_P2;PMS_P1;PMS_P2;Temp;Humidity;BMP_temperature;BMP_pressure;BME280_temperature;BME280_humidity;BME280_pressure;Samples;Min_cycle;Max_cycle;Signal;HPM_P1;HPM_P2
2022/09/04 00:00:23;;;;;;;4.47;3.60;;;16.20;99.90;;;;;;5075255;28;20196;-67
2022/09/04 00:03:25;;;;;;;6.57;3.42;;;16.10;99.90;;;;;;5075246;28;20174;-67
2022/09/04 00:05:52;;;;;;;3.92;3.53;;;16.10;99.90;;;;;;5079810;28;20196;-68
2022/09/04 00:08:41;;;;;;;4.78;3.70;;;16.00;99.90;;;;;;5094204;28;20180;-67
2022/09/04 00:11:12;;;;;;;4.53;3.47;;;16.00;99.90;;;;;;5094274;28;20551;-67
2022/09/04 00:13:49;;;;;;;6.20;3.50;;;16.00;99.90;;;;;;5094265;28;20609;-67
2022/09/04 00:16:26;;;;;;;4.57;3.70;;;16.00;99.90;;;;;;5095632;28;20640;-67
2022/09/04 00:19:17;;;;;;;7.63;3.75;;;16.00;99.90;;;;;;5095390;28;20244;-67
2022/09/04 00:21:57;;;;;;;4.93;3.65;;;16.00;99.90;;;;;;5095767;28;20192;-67
2022/09/04 00:24:38;;;;;;;5.50;3.80;;;15.90;99.90;;;;;;5095180;28;20177;-67
2022/09/04 00:27:20;;;;;;;7.15;3.72;;;15.70;99.90;;;;;;5089676;28;20292;-67
2022/09/04 00:30:07;;;;;;;4.45;3.65;;;15.70;99.90;;;;;;5075174;28;20188;-67
2022/09/04 00:32:48;;;;;;;4.63;3.83;;;15.70;99.90;;;;;;5074718;28;20168;-67
2022/09/04 00:35:19;;;;;;;3.85;3.45;;;15.70;99.90;;;;;;5073450;28;20169;-67
2022/09/04 00:38:05;;;;;;;4.90;3.63;;;15.60;99.90;;;;;;5054619;28;20198;-67
2022/09/04 00:40:43;;;;;;;4.05;3.60;;;15.50;99.90;;;;;;5054797;28;20210;-67
2022/09/04 00:43:46;;;;;;;4.38;3.70;;;15.50;99.90;;;;;;5054944;28;20241;-67
2022/09/04 00:46:24;;;;;;;7.47;3.83;;;15.50;99.90;;;;;;5054624;28;20277;-67
2022/09/04 00:49:02;;;;;;;5.18;3.72;;;15.40;99.90;;;;;;5053875;28;20163;-67
2022/09/04 00:51:39;;;;;;;4.10;3.65;;;15.40;99.90;;;;;;5053281;28;20174;-68
2022/09/04 00:54:39;;;;;;;3.45;3.15;;;15.40;99.90;;;;;;5053188;28;20162;-67
2022/09/04 00:57:36;;;;;;;5.22;3.83;;;15.50;99.90;;;;;;5059200;28;20202;-67
2022/09/04 01:00:20;;;;;;;5.97;3.30;;;15.50;99.90;;;;;;5052516;28;20670;-67
2022/09/04 01:03:03;;;;;;;4.47;3.97;;;15.40;99.90;;;;;;5052833;28;20178;-67
2022/09/04 01:06:02;;;;;;;4.18;3.78;;;15.40;99.90;;;;;;5057914;28;20525;-67
2022/09/04 01:09:02;;;;;;;3.95;3.55;;;15.30;99.90;;;;;;5092987;28;20184;-67
2022/09/04 01:12:06;;;;;;;5.45;3.72;;;15.20;99.90;;;;;;5094988;28;20192;-67
2022/09/04 01:14:51;;;;;;;4.28;3.83;;;15.30;99.90;;;;;;5094589;28;20160;-67
2022/09/04 01:17:35;;;;;;;4.18;3.70;;;15.30;99.90;;;;;;5094135;28;20193;-67
2022/09/04 01:20:15;;;;;;;4.35;3.30;;;15.30;99.90;;;;;;5094101;28;20582;-67
2022/09/04 01:23:07;;;;;;;5.85;3.50;;;15.20;99.90;;;;;;5094102;28;20157;-67
2022/09/04 01:25:55;;;;;;;3.78;3.33;;;15.10;99.90;;;;;;5092714;28;20179;-67
2022/09/04 01:29:00;;;;;;;4.20;3.45;;;15.10;99.90;;;;;;5078465;28;20184;-68
2022/09/04 01:31:49;;;;;;;5.75;3.13;;;15.10;99.90;;;;;;5072964;28;20217;-67
2022/09/04 01:34:40;;;;;;;3.63;3.30;;;15.10;99.90;;;;;;5072146;28;20207;-67
2022/09/04 01:37:32;;;;;;;5.75;3.33;;;15.10;99.90;;;;;;5088825;28;20213;-67
2022/09/04 01:40:49;;;;;;;5.38;4.30;;;15.10;99.90;;;;;;5092328;28;20684;-67
2022/09/04 01:43:17;;;;;;;7.63;3.67;;;15.10;99.90;;;;;;5092249;28;20169;-67
2022/09/04 01:46:01;;;;;;;4.60;3.80;;;15.10;99.90;;;;;;5093701;28;20238;-67
2022/09/04 01:48:48;;;;;;;4.50;3.92;;;15.10;99.90;;;;;;5092083;28;20173;-67
2022/09/04 01:51:47;;;;;;;5.80;3.88;;;15.00;99.90;;;;;;5092463;28;20188;-68
2022/09/04 01:54:25;;;;;;;5.82;3.80;;;15.00;99.90;;;;;;5090970;28;20272;-68
2022/09/04 01:57:08;;;;;;;6.47;3.60;;;14.90;99.90;;;;;;5090819;28;20205;-68
2022/09/04 02:00:02;;;;;;;3.83;3.40;;;14.90;99.90;;;;;;5073458;28;20185;-68
2022/09/04 02:02:36;;;;;;;4.22;3.83;;;14.90;99.90;;;;;;5074635;28;20208;-69
2022/09/04 02:05:08;;;;;;;3.80;3.50;;;14.80;99.90;;;;;;5076119;28;20173;-68
2022/09/04 02:08:01;;;;;;;3.42;3.13;;;14.80;99.90;;;;;;5096595;28;20243;-68
2022/09/04 02:10:30;;;;;;;4.70;3.80;;;14.80;99.90;;;;;;5097585;28;20259;-68
2022/09/04 02:13:28;;;;;;;5.55;3.47;;;14.80;99.90;;;;;;5096365;28;20776;-68
2022/09/04 02:16:19;;;;;;;3.65;3.33;;;14.70;99.90;;;;;;5096037;28;20534;-69
2022/09/04 02:19:10;;;;;;;5.10;3.40;;;14.70;99.90;;;;;;5097590;28;20157;-69
2022/09/04 02:21:46;;;;;;;5.78;3.40;;;14.60;99.90;;;;;;5097257;28;20200;-68
2022/09/04 02:24:24;;;;;;;4.07;3.60;;;14.60;99.90;;;;;;5097696;28;20660;-68
2022/09/04 02:27:03;;;;;;;4.18;3.38;;;14.60;99.90;;;;;;5094857;28;20189;-68
2022/09/04 02:29:54;;;;;;;3.70;3.40;;;14.60;99.90;;;;;;5077158;28;20188;-68
2022/09/04 02:32:55;;;;;;;7.72;4.22;;;14.60;99.90;;;;;;5077289;28;20154;-68
2022/09/04 02:35:41;;;;;;;4.95;4.20;;;14.60;99.90;;;;;;5078407;28;20154;-68
2022/09/04 02:38:17;;;;;;;5.78;3.75;;;14.60;99.90;;;;;;5097040;28;20185;-68
2022/09/04 02:40:51;;;;;;;5.13;3.88;;;14.50;99.90;;;;;;5097181;28;20735;-68
2022/09/04 02:43:34;;;;;;;4.35;3.72;;;14.50;99.90;;;;;;5095927;28;20188;-68
2022/09/04 02:46:30;;;;;;;4.43;3.90;;;14.50;99.90;;;;;;5096736;28;20173;-70
2022/09/04 02:48:56;;;;;;;4.28;3.75;;;14.40;99.90;;;;;;5096684;28;20169;-69
2022/09/04 02:51:46;;;;;;;4.10;3.70;;;14.40;99.90;;;;;;5096767;28;20177;-68
2022/09/04 02:54:36;;;;;;;6.18;4.10;;;14.40;99.90;;;;;;5097102;28;20158;-68
2022/09/04 02:57:32;;;;;;;4.10;3.65;;;14.30;99.90;;;;;;5091068;28;20210;-68
2022/09/04 03:00:16;;;;;;;3.72;3.40;;;14.20;99.90;;;;;;5075200;28;20684;-68
2022/09/04 03:03:12;;;;;;;5.30;4.05;;;14.20;99.90;;;;;;5076928;28;20154;-68
2022/09/04 03:06:02;;;;;;;5.07;3.90;;;14.30;99.90;;;;;;5079844;28;20177;-68
2022/09/04 03:08:38;;;;;;;5.07;3.70;;;14.30;99.90;;;;;;5095230;28;20648;-68
2022/09/04 03:11:22;;;;;;;5.93;3.65;;;14.20;99.90;;;;;;5095239;28;20169;-68
2022/09/04 03:14:02;;;;;;;4.35;3.95;;;14.20;99.90;;;;;;5096025;28;20189;-68
2022/09/04 03:17:14;;;;;;;5.25;3.80;;;14.20;99.90;;;;;;5094959;28;20220;-68
2022/09/04 03:19:53;;;;;;;5.13;3.50;;;14.20;99.90;;;;;;5096294;28;20518;-68
2022/09/04 03:22:40;;;;;;;4.75;3.75;;;14.10;99.90;;;;;;5094932;28;20172;-68
2022/09/04 03:25:30;;;;;;;5.60;3.53;;;14.00;99.90;;;;;;5096418;28;20249;-68
2022/09/04 03:27:56;;;;;;;6.05;3.53;;;14.00;99.90;;;;;;5083969;28;20284;-68
2022/09/04 03:30:22;;;;;;;4.28;3.88;;;13.90;99.90;;;;;;5074535;28;20186;-68
2022/09/04 03:33:14;;;;;;;5.53;4.07;;;13.90;99.90;;;;;;5075785;28;20170;-68
2022/09/04 03:35:45;;;;;;;6.38;4.25;;;13.90;99.90;;;;;;5077910;28;20220;-68
2022/09/04 03:38:17;;;;;;;4.80;4.20;;;13.90;99.90;;;;;;5094360;28;20229;-68
2022/09/04 03:40:51;;;;;;;6.95;3.72;;;13.90;99.90;;;;;;5094478;28;20209;-68
2022/09/04 03:43:46;;;;;;;4.68;4.28;;;13.80;99.90;;;;;;5095884;28;20681;-68
2022/09/04 03:46:24;;;;;;;5.72;3.95;;;13.80;99.90;;;;;;5096422;28;20289;-68
2022/09/04 03:49:16;;;;;;;5.03;4.05;;;13.70;99.90;;;;;;5094190;28;20174;-68
2022/09/04 03:52:15;;;;;;;5.05;4.05;;;13.70;99.90;;;;;;5096004;28;20252;-69
2022/09/04 03:55:02;;;;;;;5.05;4.28;;;13.60;99.90;;;;;;5095604;28;20232;-68
2022/09/04 03:57:37;;;;;;;4.80;4.25;;;13.70;99.90;;;;;;5086216;28;20681;-68
2022/09/04 04:00:19;;;;;;;4.10;3.70;;;13.60;99.90;;;;;;5074938;28;20205;-68
2022/09/04 04:03:23;;;;;;;4.43;4.03;;;13.60;99.90;;;;;;5075378;28;20179;-70
2022/09/04 04:06:11;;;;;;;4.50;3.88;;;13.60;99.90;;;;;;5078018;28;20188;-69
2022/09/04 04:09:10;;;;;;;6.22;4.40;;;13.50;99.90;;;;;;5095233;28;20153;-68
2022/09/04 04:12:19;;;;;;;8.05;4.40;;;13.50;99.90;;;;;;5082400;28;20272;-68
2022/09/04 04:14:45;;;;;;;4.30;3.90;;;13.50;99.90;;;;;;5094192;28;20186;-68
2022/09/04 04:17:42;;;;;;;3.72;3.42;;;13.50;99.90;;;;;;5095171;28;20188;-68
2022/09/04 04:20:11;;;;;;;5.88;3.90;;;13.50;99.90;;;;;;5093791;28;20342;-68
2022/09/04 04:22:40;;;;;;;4.03;3.70;;;13.50;99.90;;;;;;5093927;28;20517;-68
2022/09/04 04:25:09;;;;;;;4.88;4.18;;;13.50;99.90;;;;;;5094371;28;20253;-68
2022/09/04 04:27:51;;;;;;;4.60;4.10;;;13.50;99.90;;;;;;5086051;28;20204;-68
2022/09/04 04:30:18;;;;;;;5.38;4.20;;;13.50;99.90;;;;;;5073471;28;20189;-68
2022/09/04 04:33:24;;;;;;;4.65;4.15;;;13.50;99.90;;;;;;5075556;28;20253;-68
2022/09/04 04:36:08;;;;;;;5.53;3.88;;;13.50;99.90;;;;;;5078284;28;20189;-68
2022/09/04 04:39:11;;;;;;;4.43;3.72;;;13.50;99.90;;;;;;5093474;28;20221;-68
2022/09/04 04:42:16;;;;;;;4.45;4.05;;;13.50;99.90;;;;;;5095408;28;20177;-68
2022/09/04 04:45:51;;;;;;;4.70;4.20;;;13.50;99.90;;;;;;5095473;28;20145;-69
2022/09/04 04:48:32;;;;;;;5.45;4.07;;;13.50;99.90;;;;;;5093337;28;20219;-68
2022/09/04 04:51:23;;;;;;;5.07;3.90;;;13.50;99.90;;;;;;5094917;28;20172;-68
2022/09/04 04:54:21;;;;;;;6.95;4.20;;;13.50;99.90;;;;;;5094771;28;20169;-68
2022/09/04 04:56:52;;;;;;;5.38;4.40;;;13.50;99.90;;;;;;5092317;28;20235;-68
2022/09/04 04:59:46;;;;;;;4.68;4.28;;;13.50;99.90;;;;;;5074194;28;20212;-68
2022/09/04 05:02:24;;;;;;;4.15;3.83;;;13.50;99.90;;;;;;5072996;28;20188;-68
2022/09/04 05:05:03;;;;;;;5.25;4.47;;;13.50;99.90;;;;;;5072962;28;20169;-68
2022/09/04 05:08:05;;;;;;;6.80;4.45;;;13.50;99.90;;;;;;5093002;28;20201;-68
2022/09/04 05:10:35;;;;;;;5.18;4.43;;;13.50;99.90;;;;;;5095218;28;20172;-68
2022/09/04 05:13:21;;;;;;;5.32;4.65;;;13.50;99.90;;;;;;5093306;28;20162;-68
2022/09/04 05:16:16;;;;;;;5.13;4.13;;;13.50;99.90;;;;;;5094289;28;20168;-69
2022/09/04 05:18:51;;;;;;;5.35;4.20;;;13.50;99.90;;;;;;5094404;28;20161;-68
2022/09/04 05:21:43;;;;;;;4.82;4.35;;;13.50;99.90;;;;;;5092811;28;20196;-68
2022/09/04 05:24:35;;;;;;;6.18;4.47;;;13.60;99.90;;;;;;5092603;28;20170;-68
2022/09/04 05:27:33;;;;;;;6.63;4.45;;;13.60;99.90;;;;;;5088327;28;20198;-68
2022/09/04 05:30:11;;;;;;;5.20;4.13;;;13.70;99.90;;;;;;5073481;28;20212;-68
2022/09/04 05:32:47;;;;;;;6.10;5.15;;;13.70;99.90;;;;;;5073727;28;20538;-68
2022/09/04 05:35:26;;;;;;;6.63;4.45;;;13.80;99.90;;;;;;5071881;28;20629;-68
2022/09/04 05:38:00;;;;;;;5.15;4.65;;;13.80;99.90;;;;;;5053326;28;20597;-68
2022/09/04 05:40:37;;;;;;;5.22;4.40;;;13.90;99.90;;;;;;5053157;28;20220;-68
2022/09/04 05:43:30;;;;;;;4.45;4.05;;;13.90;99.90;;;;;;5053606;28;20546;-68
2022/09/04 05:46:14;;;;;;;6.05;4.50;;;14.00;99.90;;;;;;5053446;28;20189;-68
2022/09/04 05:48:58;;;;;;;6.07;5.00;;;14.10;99.90;;;;;;5053007;28;20226;-69
2022/09/04 05:51:31;;;;;;;6.43;4.97;;;14.10;99.90;;;;;;5051891;28;20188;-69
2022/09/04 05:54:24;;;;;;;5.65;5.03;;;14.10;99.90;;;;;;5053671;28;20159;-69
2022/09/04 05:56:55;;;;;;;7.15;5.60;;;14.20;99.90;;;;;;5054382;28;20221;-69
2022/09/04 05:59:33;;;;;;;6.07;5.15;;;14.30;99.90;;;;;;5071881;28;20189;-69
2022/09/04 06:02:13;;;;;;;6.15;5.28;;;14.40;99.90;;;;;;5073291;28;20379;-67
2022/09/04 06:05:11;;;;;;;5.82;5.22;;;14.40;99.90;;;;;;5072907;28;20158;-67
2022/09/04 06:08:05;;;;;;;6.85;5.32;;;14.60;99.90;;;;;;5092671;28;20197;-67
2022/09/04 06:10:39;;;;;;;6.93;5.32;;;14.70;99.90;;;;;;5093700;28;20166;-67
2022/09/04 06:13:17;;;;;;;5.05;4.53;;;14.80;99.90;;;;;;5093394;28;20236;-67
2022/09/04 06:16:09;;;;;;;6.25;4.97;;;14.90;99.90;;;;;;5093385;28;20180;-67
2022/09/04 06:18:35;;;;;;;7.22;4.97;;;15.00;99.90;;;;;;5092113;28;20185;-67
2022/09/04 06:21:06;;;;;;;5.90;4.80;;;15.00;99.90;;;;;;5093195;28;20555;-69
2022/09/04 06:24:08;;;;;;;6.15;5.05;;;15.10;99.90;;;;;;5093249;28;20617;-69
2022/09/04 06:26:48;;;;;;;6.15;5.50;;;15.20;99.90;;;;;;5091627;28;20204;-68
2022/09/04 06:29:32;;;;;;;6.45;4.70;;;15.30;99.90;;;;;;5073748;28;20607;-67
2022/09/04 06:32:13;;;;;;;8.82;5.38;;;15.50;99.90;;;;;;5072393;28;20174;-67
2022/09/04 06:35:02;;;;;;;6.10;4.82;;;15.70;99.90;;;;;;5073463;28;20154;-67
2022/09/04 06:37:42;;;;;;;7.28;4.70;;;15.80;99.90;;;;;;5091561;28;20278;-67
2022/09/04 06:40:32;;;;;;;6.47;4.57;;;15.90;99.90;;;;;;5093328;28;20579;-67
2022/09/04 06:43:02;;;;;;;4.80;4.28;;;16.10;99.90;;;;;;5093214;28;20195;-67
2022/09/04 06:45:34;;;;;;;8.93;4.60;;;16.20;99.90;;;;;;5092049;28;20197;-69
2022/09/04 06:48:21;;;;;;;4.65;4.18;;;16.40;99.90;;;;;;5093569;28;20200;-69
2022/09/04 06:51:07;;;;;;;4.68;4.25;;;16.50;99.90;;;;;;5096498;28;20649;-69
2022/09/04 06:53:51;;;;;;;4.38;3.97;;;16.60;99.90;;;;;;5096707;28;20157;-69
2022/09/04 06:56:39;;;;;;;4.30;3.90;;;16.70;99.90;;;;;;5097112;28;20196;-69
2022/09/04 06:59:39;;;;;;;4.28;3.78;;;16.90;99.90;;;;;;5056237;28;20206;-70
2022/09/04 07:02:39;;;;;;;4.10;3.70;;;17.00;99.90;;;;;;5055480;28;20579;-70
2022/09/04 07:05:05;;;;;;;8.13;4.57;;;17.20;99.90;;;;;;5056246;28;20163;-70
2022/09/04 07:07:51;;;;;;;4.95;4.40;;;17.30;99.90;;;;;;5093318;28;20211;-70
2022/09/04 07:10:41;;;;;;;6.10;4.13;;;17.40;99.90;;;;;;5095156;28;20180;-70
2022/09/04 07:13:31;;;;;;;4.20;3.80;;;17.50;99.90;;;;;;5096802;28;20753;-70
2022/09/04 07:16:08;;;;;;;4.25;3.85;;;17.50;99.90;;;;;;5094804;28;20188;-69
2022/09/04 07:18:57;;;;;;;4.47;3.65;;;17.70;99.90;;;;;;5096805;28;20192;-73
2022/09/04 07:21:42;;;;;;;4.07;3.65;;;17.80;99.90;;;;;;5095136;28;20212;-70
2022/09/04 07:24:29;;;;;;;5.60;4.20;;;18.00;99.90;;;;;;5095437;28;20177;-70
2022/09/04 07:27:14;;;;;;;4.85;3.90;;;18.10;99.90;;;;;;5092980;28;20205;-70
2022/09/04 07:30:01;;;;;;;6.07;3.60;;;18.30;99.90;;;;;;5075798;28;20178;-70
2022/09/04 07:32:49;;;;;;;5.25;3.72;;;18.30;99.90;;;;;;5075771;28;20176;-69
2022/09/04 07:35:49;;;;;;;5.18;4.03;;;18.50;99.90;;;;;;5074355;28;20211;-68
2022/09/04 07:38:43;;;;;;;4.35;3.80;;;18.60;99.90;;;;;;5075524;28;20225;-69
2022/09/04 07:41:27;;;;;;;3.97;3.55;;;18.70;99.90;;;;;;5074810;28;20708;-73
2022/09/04 07:44:35;;;;;;;3.83;3.40;;;18.70;99.90;;;;;;5075926;28;20181;-69
2022/09/04 07:47:01;;;;;;;3.78;3.30;;;18.80;99.90;;;;;;5073953;28;20276;-67
2022/09/04 07:50:28;;;;;;;3.55;3.25;;;18.90;99.90;;;;;;5075677;28;20269;-69
2022/09/04 07:53:41;;;;;;;3.45;3.15;;;19.00;99.90;;;;;;5041024;28;20618;-67
2022/09/04 07:56:34;;;;;;;4.03;3.20;;;19.10;99.90;;;;;;5075800;28;20273;-68
2022/09/04 07:59:24;;;;;;;6.15;3.35;;;19.30;99.90;;;;;;5055925;28;20174;-69
2022/09/04 08:01:49;;;;;;;5.13;3.53;;;19.40;99.90;;;;;;5053938;28;20251;-69
2022/09/04 08:04:50;;;;;;;3.88;3.45;;;19.50;99.90;;;;;;5055340;28;20159;-69
2022/09/04 08:07:27;;;;;;;4.18;3.40;;;19.70;99.90;;;;;;5086976;28;20251;-69
2022/09/04 08:10:32;;;;;;;3.78;3.40;;;19.80;99.90;;;;;;5093970;28;20168;-69
2022/09/04 08:13:35;;;;;;;3.75;3.30;;;19.90;99.90;;;;;;5096023;28;20256;-76
2022/09/04 08:16:17;;;;;;;3.42;3.03;;;20.00;99.90;;;;;;5097974;28;20213;-76
2022/09/04 08:18:51;;;;;;;4.22;3.10;;;20.10;99.90;;;;;;5094814;28;20179;-77
2022/09/04 08:21:41;;;;;;;3.42;3.13;;;20.30;99.90;;;;;;5095164;28;20604;-75
2022/09/04 08:24:26;;;;;;;4.50;3.20;;;20.40;99.90;;;;;;5095513;28;20157;-75
2022/09/04 08:27:17;;;;;;;3.95;3.55;;;20.50;99.90;;;;;;5092102;28;20205;-68
2022/09/04 08:30:04;;;;;;;5.50;3.70;;;20.50;99.90;;;;;;5074336;28;20260;-68
2022/09/04 08:32:41;;;;;;;4.93;3.42;;;20.60;99.90;;;;;;5074636;28;20630;-68
2022/09/04 08:35:50;;;;;;;3.60;3.30;;;20.70;99.90;;;;;;5073091;28;20721;-68
2022/09/04 08:38:58;;;;;;;3.75;3.22;;;20.90;99.90;;;;;;5060151;28;20209;-68
2022/09/04 08:41:57;;;;;;;3.88;3.25;;;21.00;99.90;;;;;;5053153;28;20309;-68
2022/09/04 08:44:55;;;;;;;4.07;3.33;;;21.10;99.90;;;;;;5055136;28;20173;-68
2022/09/04 08:47:39;;;;;;;4.28;3.58;;;21.10;99.90;;;;;;5055366;28;20201;-68
2022/09/04 08:50:43;;;;;;;4.68;3.85;;;21.30;99.90;;;;;;5054181;28;20167;-68
2022/09/04 08:53:17;;;;;;;5.72;3.40;;;21.40;99.90;;;;;;5052095;28;20712;-68
2022/09/04 08:55:58;;;;;;;5.50;3.63;;;21.60;99.90;;;;;;5051284;28;20279;-73
2022/09/04 08:58:52;;;;;;;3.95;3.50;;;21.70;99.90;;;;;;5068540;28;20186;-73
2022/09/04 09:01:42;;;;;;;4.50;3.90;;;21.80;99.90;;;;;;5074290;28;20193;-73
2022/09/04 09:04:35;;;;;;;8.30;4.38;;;21.90;99.90;;;;;;5074598;28;20187;-73
2022/09/04 09:07:15;;;;;;;4.90;3.72;;;22.10;99.90;;;;;;5088895;28;20242;-73
2022/09/04 09:10:08;;;;;;;6.53;4.00;;;22.20;99.90;;;;;;5095293;28;20179;-73
2022/09/04 09:12:52;;;;;;;4.50;3.65;;;22.40;99.90;;;;;;5096918;28;20236;-73
2022/09/04 09:15:41;;;;;;;6.20;3.65;;;22.60;99.90;;;;;;5094150;28;20177;-73
2022/09/04 09:18:19;;;;;;;4.22;3.42;;;22.70;99.90;;;;;;5094812;28;20280;-70
2022/09/04 09:20:53;;;;;;;5.20;3.90;;;22.80;99.90;;;;;;5092746;28;20672;-70
2022/09/04 09:23:40;;;;;;;5.32;4.43;;;22.90;99.90;;;;;;5093817;28;20197;-70
2022/09/04 09:26:47;;;;;;;4.65;3.53;;;22.90;99.90;;;;;;5095216;28;20188;-69
2022/09/04 09:29:19;;;;;;;4.28;3.47;;;23.00;99.90;;;;;;5060970;28;20707;-70
2022/09/04 09:32:02;;;;;;;7.72;3.63;;;23.00;99.90;;;;;;5053012;28;20178;-70
2022/09/04 09:34:47;;;;;;;3.20;2.90;;;23.10;99.90;;;;;;5053768;28;20170;-70
2022/09/04 09:37:21;;;;;;;5.40;3.70;;;23.40;99.90;;;;;;5086043;28;20673;-73
2022/09/04 09:40:02;;;;;;;5.80;3.60;;;23.40;99.90;;;;;;5092527;28;20245;-73
2022/09/04 09:42:47;;;;;;;4.07;3.35;;;23.50;99.90;;;;;;5093906;28;20569;-73
2022/09/04 09:45:12;;;;;;;5.28;3.63;;;23.60;99.90;;;;;;5093820;28;20145;-73
2022/09/04 09:47:44;;;;;;;6.13;4.38;;;23.70;99.90;;;;;;5093770;28;20271;-73
2022/09/04 09:50:35;;;;;;;3.58;3.28;;;23.70;99.90;;;;;;5093718;28;20181;-73
2022/09/04 09:53:29;;;;;;;3.83;3.38;;;23.70;99.90;;;;;;5092260;28;20234;-70
2022/09/04 09:56:23;;;;;;;7.35;3.90;;;23.70;99.90;;;;;;5095237;28;20169;-68
2022/09/04 09:59:31;;;;;;;6.38;3.92;;;23.90;99.90;;;;;;5075576;28;20188;-69
2022/09/04 10:02:36;;;;;;;4.78;4.03;;;23.90;99.90;;;;;;5074201;28;20704;-68
2022/09/04 10:05:21;;;;;;;4.38;3.30;;;24.00;99.90;;;;;;5073519;28;20178;-73
2022/09/04 10:07:54;;;;;;;4.80;3.50;;;24.10;99.90;;;;;;5052266;28;20587;-70
2022/09/04 10:10:23;;;;;;;6.72;4.78;;;24.20;99.90;;;;;;5053249;28;20159;-70
2022/09/04 10:13:18;;;;;;;5.13;3.70;;;24.20;99.90;;;;;;5053264;28;20175;-70
2022/09/04 10:16:21;;;;;;;6.03;3.58;;;24.20;99.90;;;;;;5052025;28;20647;-70
2022/09/04 10:19:11;;;;;;;8.18;4.50;;;24.40;99.90;;;;;;5053312;28;20590;-69
2022/09/04 10:22:10;;;;;;;7.18;3.75;;;24.40;99.90;;;;;;5053566;28;20655;-69
2022/09/04 10:24:48;;;;;;;5.75;3.97;;;24.60;99.90;;;;;;5057688;28;20280;-69
2022/09/04 10:27:48;;;;;;;5.65;4.22;;;24.50;99.90;;;;;;5061376;28;20202;-69
2022/09/04 10:30:21;;;;;;;5.20;4.20;;;24.60;99.90;;;;;;5058033;28;20190;-70
2022/09/04 10:33:15;;;;;;;7.93;4.72;;;24.50;99.90;;;;;;5056960;28;20175;-70
2022/09/04 10:36:06;;;;;;;5.93;4.28;;;24.40;99.90;;;;;;5063787;28;20181;-70
2022/09/04 10:42:07;;;;;;;5.28;4.00;;;24.20;99.90;;;;;;5097230;28;20672;-70
2022/09/04 10:44:38;;;;;;;4.53;3.72;;;24.30;99.90;;;;;;5095894;28;20173;-70
2022/09/04 10:47:13;;;;;;;5.47;3.60;;;24.50;99.90;;;;;;5096926;28;20623;-70
2022/09/04 10:49:48;;;;;;;5.15;3.78;;;24.70;99.90;;;;;;5097106;28;20160;-69
2022/09/04 10:52:48;;;;;;;6.68;4.25;;;24.90;99.90;;;;;;5096826;28;20168;-67
2022/09/04 10:55:30;;;;;;;4.25;3.55;;;25.10;99.90;;;;;;5096939;28;20154;-68
2022/09/04 10:58:17;;;;;;;5.15;4.15;;;25.30;99.90;;;;;;5083404;28;20685;-69
2022/09/04 11:01:14;;;;;;;5.60;4.05;;;25.40;99.90;;;;;;5076028;28;20288;-70
2022/09/04 11:04:12;;;;;;;4.50;3.03;;;25.60;99.90;;;;;;5075487;28;20240;-68
2022/09/04 11:06:57;;;;;;;6.05;3.92;;;25.90;99.90;;;;;;5086095;28;20782;-68
2022/09/04 11:09:41;;;;;;;3.95;3.30;;;26.00;99.90;;;;;;5096340;28;20231;-68
2022/09/04 11:12:31;;;;;;;8.07;3.85;;;26.00;99.90;;;;;;5096335;28;20168;-68
2022/09/04 11:15:31;;;;;;;4.45;3.35;;;26.20;99.90;;;;;;5096639;28;20200;-70
2022/09/04 11:18:26;;;;;;;5.47;4.00;;;26.50;99.90;;;;;;5096443;28;20200;-68
2022/09/04 11:21:13;;;;;;;5.40;3.53;;;26.70;99.90;;;;;;5094588;28;20197;-68
2022/09/04 11:24:02;;;;;;;5.18;3.63;;;26.80;99.90;;;;;;5096046;28;20235;-69
2022/09/04 11:26:36;;;;;;;6.07;3.75;;;26.80;99.90;;;;;;5094744;28;20192;-69
2022/09/04 11:29:11;;;;;;;6.75;3.95;;;26.70;99.90;;;;;;5056121;28;20174;-67
2022/09/04 11:31:55;;;;;;;5.13;3.22;;;26.70;99.90;;;;;;5054579;28;20259;-68
2022/09/04 11:35:18;;;;;;;3.55;3.20;;;26.80;99.90;;;;;;5055552;28;20274;-68
2022/09/04 11:37:49;;;;;;;3.97;3.05;;;27.20;99.90;;;;;;5053596;28;20209;-69
2022/09/04 11:40:18;;;;;;;4.35;3.38;;;27.60;99.90;;;;;;5053517;28;20217;-67
2022/09/04 11:43:05;;;;;;;5.90;3.42;;;27.80;99.90;;;;;;5054769;28;20251;-67
2022/09/04 11:46:08;;;;;;;3.83;3.40;;;27.70;99.90;;;;;;5055754;28;20651;-67
2022/09/04 11:49:06;;;;;;;3.83;2.90;;;28.00;99.90;;;;;;5055938;28;20186;-67
2022/09/04 11:52:03;;;;;;;4.72;3.22;;;28.10;99.90;;;;;;5053910;28;20543;-67
2022/09/04 11:54:28;;;;;;;3.90;3.50;;;28.00;99.90;;;;;;5055153;28;20591;-68
2022/09/04 11:57:41;;;;;;;4.63;3.70;;;28.10;99.90;;;;;;5058401;28;20201;-67
2022/09/04 12:00:14;;;;;;;3.75;3.35;;;27.70;99.90;;;;;;5053228;28;20222;-67
2022/09/04 12:02:42;;;;;;;4.28;3.45;;;27.60;99.90;;;;;;5055321;28;20189;-67
2022/09/04 12:05:38;;;;;;;4.28;3.40;;;27.40;99.90;;;;;;5054790;28;20631;-67
2022/09/04 12:08:42;;;;;;;3.80;3.33;;;27.50;99.90;;;;;;5053535;28;20608;-67
2022/09/04 12:11:45;;;;;;;5.18;3.72;;;27.70;99.90;;;;;;5055189;28;20180;-67
2022/09/04 12:14:39;;;;;;;5.30;3.70;;;27.50;99.90;;;;;;5054214;28;20189;-67
2022/09/04 12:17:24;;;;;;;5.10;3.40;;;27.70;99.90;;;;;;5055108;28;20198;-67
2022/09/04 12:20:27;;;;;;;4.50;3.65;;;27.70;99.90;;;;;;5053564;28;20179;-72
2022/09/04 12:23:17;;;;;;;4.18;3.15;;;27.80;99.90;;;;;;5054621;28;20171;-67
2022/09/04 12:25:50;;;;;;;4.13;3.42;;;27.30;99.90;;;;;;5053463;28;20198;-67
2022/09/04 12:28:45;;;;;;;4.32;3.70;;;26.90;99.90;;;;;;5068813;28;20202;-70
2022/09/04 12:31:17;;;;;;;5.05;3.47;;;27.00;99.90;;;;;;5075053;28;20211;-67
2022/09/04 12:34:03;;;;;;;4.63;3.40;;;27.20;99.90;;;;;;5074887;28;20169;-67
2022/09/04 12:36:59;;;;;;;4.03;3.20;;;27.40;99.90;;;;;;5084378;28;20235;-68
2022/09/04 12:40:02;;;;;;;4.38;3.60;;;27.40;99.90;;;;;;5093159;28;20264;-68
2022/09/04 12:42:56;;;;;;;4.95;3.03;;;27.60;99.90;;;;;;5094714;28;20175;-68
2022/09/04 12:45:35;;;;;;;5.13;3.38;;;28.00;99.90;;;;;;5083203;28;20185;-69
2022/09/04 12:48:10;;;;;;;4.28;3.55;;;28.20;99.90;;;;;;5094403;28;20189;-70
2022/09/04 12:50:35;;;;;;;8.02;3.25;;;27.70;99.90;;;;;;5094136;28;20161;-69
2022/09/04 12:53:18;;;;;;;4.32;3.45;;;27.70;99.90;;;;;;5094213;28;20173;-69
2022/09/04 12:56:14;;;;;;;5.00;3.35;;;27.80;99.90;;;;;;5094662;28;20157;-69
2022/09/04 12:59:22;;;;;;;7.15;5.93;;;27.70;99.90;;;;;;5076083;28;20547;-69
2022/09/04 13:02:22;;;;;;;5.22;3.55;;;27.20;99.90;;;;;;5072615;28;20212;-69
2022/09/04 13:05:19;;;;;;;4.25;3.47;;;26.70;99.90;;;;;;5073341;28;20220;-68
2022/09/04 13:07:53;;;;;;;10.95;6.60;;;26.50;99.90;;;;;;5054252;28;20530;-68
2022/09/04 13:11:00;;;;;;;6.82;6.13;;;26.90;99.90;;;;;;5052578;28;20174;-69
2022/09/04 13:14:05;;;;;;;6.60;4.28;;;27.00;99.90;;;;;;5053299;28;20269;-69
2022/09/04 13:16:43;;;;;;;4.75;4.07;;;27.30;99.90;;;;;;5052417;28;20202;-69
2022/09/04 13:19:30;;;;;;;5.28;3.50;;;27.30;99.90;;;;;;5053661;28;20212;-69
2022/09/04 13:22:01;;;;;;;5.10;4.00;;;26.90;99.90;;;;;;5052039;28;20197;-70
2022/09/04 13:25:01;;;;;;;4.60;3.38;;;26.70;99.90;;;;;;5052160;28;20187;-69
2022/09/04 13:27:47;;;;;;;5.10;3.53;;;26.60;99.90;;;;;;5061196;28;20223;-69
2022/09/04 13:30:20;;;;;;;3.40;3.10;;;26.80;99.90;;;;;;5073347;28;20178;-69
2022/09/04 13:33:05;;;;;;;4.57;3.13;;;27.10;99.90;;;;;;5073743;28;20199;-69
2022/09/04 13:35:59;;;;;;;4.45;3.38;;;27.10;99.90;;;;;;5075391;28;20173;-68
2022/09/04 13:39:11;;;;;;;3.72;3.40;;;27.10;99.90;;;;;;5091611;28;20192;-68
2022/09/04 13:41:37;;;;;;;3.92;3.10;;;27.10;99.90;;;;;;5093641;28;20193;-69
2022/09/04 13:44:12;;;;;;;4.40;3.35;;;27.30;99.90;;;;;;5093654;28;20579;-69
2022/09/04 13:46:48;;;;;;;5.60;3.50;;;27.30;99.90;;;;;;5092605;28;20636;-69
2022/09/04 13:49:28;;;;;;;4.00;3.08;;;27.30;99.90;;;;;;5093615;28;20164;-69
2022/09/04 13:52:06;;;;;;;4.45;2.92;;;27.70;99.90;;;;;;5092102;28;20553;-68
2022/09/04 13:54:41;;;;;;;3.10;2.67;;;28.30;99.90;;;;;;5093381;28;20153;-69
2022/09/04 13:57:16;;;;;;;4.32;2.58;;;29.00;99.90;;;;;;5089078;28;20213;-69
2022/09/04 13:59:48;;;;;;;2.60;2.40;;;29.20;99.90;;;;;;5077606;28;20181;-69
2022/09/04 14:02:24;;;;;;;3.33;3.03;;;29.10;99.90;;;;;;5077276;28;20225;-69
2022/09/04 14:05:08;;;;;;;3.28;2.97;;;28.90;99.90;;;;;;5076157;28;20196;-69
2022/09/04 14:07:43;;;;;;;3.20;2.88;;;28.60;99.90;;;;;;5096282;28;20197;-68
2022/09/04 14:10:45;;;;;;;3.28;2.70;;;28.00;99.90;;;;;;5097917;28;20156;-69
2022/09/04 14:13:27;;;;;;;3.45;3.00;;;27.50;99.90;;;;;;5092417;28;20185;-69
2022/09/04 14:16:07;;;;;;;3.60;3.03;;;27.00;99.90;;;;;;5096324;28;20535;-70
2022/09/04 14:18:43;;;;;;;3.58;2.60;;;26.70;99.90;;;;;;5098669;28;20153;-67
2022/09/04 14:21:45;;;;;;;3.10;2.75;;;26.40;99.90;;;;;;5095743;28;20219;-67
2022/09/04 14:24:34;;;;;;;4.18;3.20;;;26.30;99.90;;;;;;5097310;28;20277;-67
2022/09/04 14:27:24;;;;;;;4.10;3.10;;;26.30;99.90;;;;;;5093385;28;20197;-68
2022/09/04 14:30:14;;;;;;;3.42;3.00;;;26.30;99.90;;;;;;5075568;28;20272;-68